Time,TemperatureF,DewpointF,PressureIn,WindDirection,WindDirectionDegrees,WindSpeedMPH,WindSpeedGustMPH,Humidity,HourlyPrecipIn,Conditions,Clouds,dailyrainin,SoftwareType,DateUTC
2013-01-22 00:02:00,39.0,33.0,30.13,East,94,0.0,0.0,80,0.00,,,0.00,,2013-01-22 08:02:00,
2013-01-22 00:11:00,39.0,33.0,30.13,East,94,0.0,0.0,80,0.00,,,0.00,,2013-01-22 08:11:00,
2013-01-22 00:22:00,39.0,33.0,30.13,East,94,0.0,0.0,80,0.00,,,0.00,,2013-01-22 08:22:00,
2013-01-22 00:32:00,38.0,32.0,30.13,East,94,0.0,0.0,80,0.00,,,0.00,,2013-01-22 08:32:00,
2013-01-22 00:42:00,38.0,32.0,30.13,East,94,0.0,0.0,80,0.00,,,0.00,,2013-01-22 08:42:00,
2013-01-22 00:52:00,38.0,32.0,30.13,East,94,0.0,0.0,80,0.00,,,0.00,,2013-01-22 08:52:00,
2013-01-22 01:02:00,38.0,33.0,30.13,East,94,0.0,0.0,81,0.00,,,0.00,,2013-01-22 09:02:00,
2013-01-22 01:11:00,38.0,33.0,30.13,East,94,0.0,0.0,81,0.00,,,0.00,,2013-01-22 09:11:00,
2013-01-22 01:22:00,37.0,32.0,30.13,East,94,0.0,0.0,81,0.00,,,0.00,,2013-01-22 09:22:00,
2013-01-22 01:32:00,37.0,32.0,30.13,East,94,0.0,0.0,81,0.00,,,0.00,,2013-01-22 09:32:00,
2013-01-22 01:42:00,37.0,32.0,30.13,East,94,0.0,0.0,81,0.00,,,0.00,,2013-01-22 09:42:00,
2013-01-22 01:52:00,37.0,32.0,30.13,East,94,0.0,0.0,81,0.00,,,0.00,,2013-01-22 09:52:00,
2013-01-22 02:02:00,37.0,32.0,30.13,East,94,0.0,0.0,81,0.00,,,0.00,,2013-01-22 10:02:00,
2013-01-22 02:11:00,37.0,32.0,30.13,East,94,0.0,0.0,81,0.00,,,0.00,,2013-01-22 10:11:00,
2013-01-22 02:22:00,36.0,31.0,30.13,East,94,0.0,0.0,81,0.00,,,0.00,,2013-01-22 10:22:00,
2013-01-22 02:32:00,36.0,31.0,30.12,East,94,0.0,0.0,81,0.00,,,0.00,,2013-01-22 10:32:00,
2013-01-22 02:42:00,36.0,31.0,30.12,East,94,0.0,0.0,81,0.00,,,0.00,,2013-01-22 10:42:00,
2013-01-22 02:52:00,36.0,31.0,30.13,East,94,0.0,0.0,82,0.00,,,0.00,,2013-01-22 10:52:00,
2013-01-22 03:02:00,35.0,30.0,30.12,East,94,0.0,0.0,82,0.00,,,0.00,,2013-01-22 11:02:00,
2013-01-22 03:11:00,35.0,30.0,30.12,East,94,0.0,0.0,82,0.00,,,0.00,,2013-01-22 11:11:00,
2013-01-22 03:22:00,35.0,30.0,30.12,East,94,0.0,0.0,83,0.00,,,0.00,,2013-01-22 11:22:00,
2013-01-22 03:32:00,35.0,30.0,30.11,East,94,0.0,0.0,83,0.00,,,0.00,,2013-01-22 11:32:00,
2013-01-22 03:42:00,35.0,30.0,30.11,East,94,0.0,0.0,83,0.00,,,0.00,,2013-01-22 11:42:00,
2013-01-22 03:53:00,35.0,30.0,30.11,East,94,0.0,0.0,83,0.00,,,0.00,,2013-01-22 11:53:00,
2013-01-22 04:02:00,35.0,30.0,30.11,East,94,0.0,0.0,83,0.00,,,0.00,,2013-01-22 12:02:00,
2013-01-22 04:12:00,35.0,30.0,30.11,East,94,0.0,0.0,83,0.00,,,0.00,,2013-01-22 12:12:00,
2013-01-22 04:22:00,35.0,31.0,30.11,East,94,0.0,0.0,84,0.00,,,0.00,,2013-01-22 12:22:00,
2013-01-22 04:32:00,35.0,31.0,30.11,East,94,0.0,0.0,84,0.00,,,0.00,,2013-01-22 12:32:00,
2013-01-22 04:42:00,34.0,30.0,30.11,East,94,0.0,0.0,84,0.00,,,0.00,,2013-01-22 12:42:00,
2013-01-22 04:52:00,34.0,30.0,30.11,East,94,0.0,0.0,84,0.00,,,0.00,,2013-01-22 12:52:00,
2013-01-22 05:03:00,34.0,30.0,30.11,East,94,0.0,0.0,84,0.00,,,0.00,,2013-01-22 13:03:00,
2013-01-22 05:22:00,34.0,30.0,30.11,East,94,0.0,0.0,84,0.00,,,0.00,,2013-01-22 13:22:00,
2013-01-22 05:33:00,34.0,30.0,30.11,East,94,0.0,0.0,84,0.00,,,0.00,,2013-01-22 13:33:00,
2013-01-22 05:42:00,34.0,30.0,30.11,East,94,0.0,0.0,84,0.00,,,0.00,,2013-01-22 13:42:00,
2013-01-22 05:52:00,34.0,30.0,30.11,East,94,0.0,0.0,84,0.00,,,0.00,,2013-01-22 13:52:00,
2013-01-22 06:02:00,34.0,30.0,30.12,East,94,0.0,0.0,84,0.00,,,0.00,,2013-01-22 14:02:00,
2013-01-22 06:12:00,34.0,30.0,30.12,East,94,0.0,0.0,84,0.00,,,0.00,,2013-01-22 14:12:00,
2013-01-22 06:22:00,33.0,29.0,30.12,East,94,0.0,0.0,84,0.00,,,0.00,,2013-01-22 14:22:00,
2013-01-22 06:33:00,33.0,29.0,30.12,East,94,0.0,0.0,84,0.00,,,0.00,,2013-01-22 14:33:00,
2013-01-22 06:43:00,33.0,29.0,30.12,East,94,0.0,0.0,84,0.00,,,0.00,,2013-01-22 14:43:00,
2013-01-22 06:52:00,33.0,29.0,30.12,East,94,0.0,0.0,85,0.00,,,0.00,,2013-01-22 14:52:00,
2013-01-22 07:03:00,33.0,29.0,30.12,East,94,0.0,0.0,85,0.00,,,0.00,,2013-01-22 15:03:00,
2013-01-22 07:12:00,33.0,29.0,30.12,East,94,0.0,0.0,85,0.00,,,0.00,,2013-01-22 15:12:00,
2013-01-22 07:23:00,33.0,29.0,30.12,East,94,0.0,0.0,85,0.00,,,0.00,,2013-01-22 15:23:00,
2013-01-22 07:33:00,33.0,29.0,30.13,East,94,0.0,0.0,85,0.00,,,0.00,,2013-01-22 15:33:00,
2013-01-22 07:42:00,33.0,29.0,30.13,East,94,0.0,0.0,85,0.00,,,0.00,,2013-01-22 15:42:00,
2013-01-22 07:52:00,33.0,29.0,30.12,East,94,0.0,0.0,85,0.00,,,0.00,,2013-01-22 15:52:00,
2013-01-22 08:03:00,33.0,29.0,30.12,East,94,0.0,0.0,86,0.00,,,0.00,,2013-01-22 16:03:00,
2013-01-22 08:12:00,33.0,29.0,30.12,East,94,0.0,0.0,86,0.00,,,0.00,,2013-01-22 16:12:00,
2013-01-22 08:22:00,33.0,29.0,30.12,East,94,0.0,0.0,86,0.00,,,0.00,,2013-01-22 16:22:00,
2013-01-22 08:33:00,33.0,29.0,30.12,East,94,0.0,0.0,86,0.00,,,0.00,,2013-01-22 16:33:00,
2013-01-22 08:53:00,34.0,30.0,30.12,East,94,0.0,0.0,86,0.00,,,0.00,,2013-01-22 16:53:00,
2013-01-22 09:03:00,34.0,31.0,30.12,East,94,0.0,0.0,87,0.00,,,0.00,,2013-01-22 17:03:00,
2013-01-22 09:22:00,39.0,36.0,30.12,East,94,0.0,0.0,88,0.00,,,0.00,,2013-01-22 17:22:00,
2013-01-22 09:33:00,43.0,38.0,30.12,East,94,0.0,0.0,82,0.00,,,0.00,,2013-01-22 17:33:00,
2013-01-22 09:43:00,43.0,38.0,30.12,East,94,0.0,0.0,82,0.00,,,0.00,,2013-01-22 17:43:00,
2013-01-22 09:53:00,46.0,39.0,30.11,East,94,0.0,0.0,77,0.00,,,0.00,,2013-01-22 17:53:00,
2013-01-22 10:03:00,49.0,39.0,30.12,East,96,0.0,0.0,69,0.00,,,0.00,,2013-01-22 18:03:00,
2013-01-22 10:12:00,49.0,39.0,30.12,East,96,0.0,0.0,69,0.00,,,0.00,,2013-01-22 18:12:00,
2013-01-22 10:23:00,51.0,39.0,30.12,East,96,0.0,0.0,63,0.00,,,0.00,,2013-01-22 18:23:00,
2013-01-22 10:33:00,53.0,41.0,30.12,East,92,0.0,0.0,63,0.00,,,0.00,,2013-01-22 18:33:00,
2013-01-22 10:42:00,53.0,41.0,30.12,East,92,0.0,0.0,63,0.00,,,0.00,,2013-01-22 18:42:00,
2013-01-22 10:53:00,53.0,39.0,30.12,North,5,0.0,2.0,58,0.00,,,0.00,,2013-01-22 18:53:00,
2013-01-22 11:03:00,55.0,40.0,30.12,NE,36,0.0,1.0,56,0.00,,,0.00,,2013-01-22 19:03:00,
2013-01-22 11:12:00,55.0,40.0,30.12,NE,36,0.0,1.0,56,0.00,,,0.00,,2013-01-22 19:12:00,
2013-01-22 11:22:00,56.0,40.0,30.12,ENE,62,0.0,2.0,54,0.00,,,0.00,,2013-01-22 19:22:00,
2013-01-22 11:33:00,57.0,40.0,30.12,ENE,63,0.0,2.0,53,0.00,,,0.00,,2013-01-22 19:33:00,
2013-01-22 11:42:00,57.0,40.0,30.12,ENE,63,0.0,2.0,53,0.00,,,0.00,,2013-01-22 19:42:00,
2013-01-22 11:53:00,57.0,39.0,30.11,ENE,64,0.0,1.0,50,0.00,,,0.00,,2013-01-22 19:53:00,
2013-01-22 12:02:00,59.0,39.0,30.10,North,5,0.0,1.0,47,0.00,,,0.00,,2013-01-22 20:02:00,
2013-01-22 12:12:00,59.0,39.0,30.10,North,5,0.0,1.0,47,0.00,,,0.00,,2013-01-22 20:12:00,
2013-01-22 12:22:00,59.0,40.0,30.09,North,5,0.0,0.0,49,0.00,,,0.00,,2013-01-22 20:22:00,
2013-01-22 12:32:00,59.0,40.0,30.09,NNW,346,0.0,3.0,49,0.00,,,0.00,,2013-01-22 20:32:00,
2013-01-22 12:42:00,59.0,40.0,30.09,NNW,346,0.0,3.0,49,0.00,,,0.00,,2013-01-22 20:42:00,
2013-01-22 12:52:00,60.0,41.0,30.08,NNE,30,0.0,0.0,50,0.00,,,0.00,,2013-01-22 20:52:00,
2013-01-22 13:02:00,60.0,38.0,30.08,NE,41,0.0,4.0,44,0.00,,,0.00,,2013-01-22 21:02:00,
2013-01-22 13:12:00,60.0,38.0,30.08,NE,41,0.0,4.0,44,0.00,,,0.00,,2013-01-22 21:12:00,
2013-01-22 13:22:00,61.0,37.0,30.06,North,5,0.0,4.0,41,0.00,,,0.00,,2013-01-22 21:22:00,
2013-01-22 13:33:00,61.0,41.0,30.06,ENE,70,0.0,1.0,47,0.00,,,0.00,,2013-01-22 21:33:00,
2013-01-22 13:42:00,61.0,41.0,30.06,ENE,70,0.0,1.0,47,0.00,,,0.00,,2013-01-22 21:42:00,
2013-01-22 13:53:00,60.0,39.0,30.06,North,355,0.0,3.0,46,0.00,,,0.00,,2013-01-22 21:53:00,
2013-01-22 14:02:00,61.0,40.0,30.05,North,0,0.0,3.0,46,0.00,,,0.00,,2013-01-22 22:02:00,
2013-01-22 14:12:00,61.0,40.0,30.05,North,0,0.0,3.0,46,0.00,,,0.00,,2013-01-22 22:12:00,
2013-01-22 14:22:00,61.0,41.0,30.05,NE,54,0.0,3.0,48,0.00,,,0.00,,2013-01-22 22:22:00,
2013-01-22 14:32:00,61.0,41.0,30.05,NE,54,0.0,3.0,48,0.00,,,0.00,,2013-01-22 22:32:00,
2013-01-22 14:42:00,61.0,41.0,30.04,NE,53,0.0,0.0,48,0.00,,,0.00,,2013-01-22 22:42:00,
2013-01-22 14:52:00,61.0,40.0,30.05,NE,53,0.0,1.0,46,0.00,,,0.00,,2013-01-22 22:52:00,
2013-01-22 15:02:00,61.0,40.0,30.04,NE,36,0.0,2.0,46,0.00,,,0.00,,2013-01-22 23:02:00,
2013-01-22 15:12:00,61.0,40.0,30.04,NE,36,0.0,2.0,46,0.00,,,0.00,,2013-01-22 23:12:00,
2013-01-22 15:22:00,61.0,40.0,30.04,NE,36,0.0,0.0,45,0.00,,,0.00,,2013-01-22 23:22:00,
2013-01-22 15:32:00,61.0,39.0,30.04,NE,36,0.0,0.0,44,0.00,,,0.00,,2013-01-22 23:32:00,
2013-01-22 15:42:00,61.0,39.0,30.04,NE,36,0.0,0.0,44,0.00,,,0.00,,2013-01-22 23:42:00,
2013-01-22 15:53:00,61.0,40.0,30.04,NE,36,0.0,0.0,45,0.00,,,0.00,,2013-01-22 23:53:00,
2013-01-22 16:02:00,61.0,40.0,30.03,NE,36,0.0,0.0,45,0.00,,,0.00,,2013-01-23 00:02:00,
2013-01-22 16:12:00,61.0,40.0,30.03,NE,36,0.0,0.0,45,0.00,,,0.00,,2013-01-23 00:12:00,
2013-01-22 16:22:00,61.0,40.0,30.03,NE,36,0.0,0.0,46,0.00,,,0.00,,2013-01-23 00:22:00,
2013-01-22 16:32:00,60.0,40.0,30.03,NE,36,0.0,0.0,48,0.00,,,0.00,,2013-01-23 00:32:00,
2013-01-22 16:42:00,60.0,40.0,30.03,NE,36,0.0,0.0,48,0.00,,,0.00,,2013-01-23 00:42:00,
2013-01-22 16:52:00,60.0,42.0,30.03,NE,36,0.0,0.0,52,0.00,,,0.00,,2013-01-23 00:52:00,
2013-01-22 17:02:00,59.0,42.0,30.03,NE,36,0.0,0.0,53,0.00,,,0.00,,2013-01-23 01:02:00,
2013-01-22 17:12:00,59.0,42.0,30.03,NE,36,0.0,0.0,53,0.00,,,0.00,,2013-01-23 01:12:00,
2013-01-22 17:22:00,58.0,42.0,30.03,NE,36,0.0,0.0,55,0.00,,,0.00,,2013-01-23 01:22:00,
2013-01-22 17:32:00,58.0,42.0,30.03,NE,36,0.0,0.0,55,0.00,,,0.00,,2013-01-23 01:32:00,
2013-01-22 17:42:00,58.0,42.0,30.03,NE,36,0.0,0.0,55,0.00,,,0.00,,2013-01-23 01:42:00,
2013-01-22 17:53:00,56.0,41.0,30.03,NE,36,0.0,0.0,56,0.00,,,0.00,,2013-01-23 01:53:00,
2013-01-22 18:02:00,56.0,41.0,30.03,NE,36,0.0,0.0,57,0.00,,,0.00,,2013-01-23 02:02:00,
2013-01-22 18:12:00,56.0,41.0,30.03,NE,36,0.0,0.0,57,0.00,,,0.00,,2013-01-23 02:12:00,
2013-01-22 18:22:00,54.0,41.0,30.02,NE,36,0.0,0.0,61,0.00,,,0.00,,2013-01-23 02:22:00,
2013-01-22 18:32:00,53.0,40.0,30.02,NE,36,0.0,0.0,62,0.00,,,0.00,,2013-01-23 02:32:00,
2013-01-22 18:42:00,53.0,40.0,30.02,NE,36,0.0,0.0,62,0.00,,,0.00,,2013-01-23 02:42:00,
2013-01-22 18:53:00,52.0,40.0,30.03,NE,36,0.0,0.0,64,0.00,,,0.00,,2013-01-23 02:53:00,
2013-01-22 19:02:00,52.0,41.0,30.03,NE,36,0.0,0.0,65,0.00,,,0.00,,2013-01-23 03:02:00,
2013-01-22 19:12:00,52.0,41.0,30.03,NE,36,0.0,0.0,65,0.00,,,0.00,,2013-01-23 03:12:00,
2013-01-22 19:22:00,51.0,40.0,30.03,NE,36,0.0,0.0,66,0.00,,,0.00,,2013-01-23 03:22:00,
2013-01-22 19:32:00,51.0,40.0,30.03,NE,36,0.0,0.0,67,0.00,,,0.00,,2013-01-23 03:32:00,
2013-01-22 19:42:00,51.0,40.0,30.03,NE,36,0.0,0.0,67,0.00,,,0.00,,2013-01-23 03:42:00,
2013-01-22 19:52:00,50.0,40.0,30.03,NE,36,0.0,0.0,69,0.00,,,0.00,,2013-01-23 03:52:00,
2013-01-22 20:03:00,50.0,41.0,30.02,NE,36,0.0,0.0,70,0.00,,,0.00,,2013-01-23 04:03:00,
2013-01-22 20:12:00,50.0,41.0,30.02,NE,36,0.0,0.0,70,0.00,,,0.00,,2013-01-23 04:12:00,
2013-01-22 20:22:00,49.0,40.0,30.03,NE,36,0.0,0.0,71,0.00,,,0.00,,2013-01-23 04:22:00,
2013-01-22 20:32:00,49.0,40.0,30.04,NE,36,0.0,0.0,71,0.00,,,0.00,,2013-01-23 04:32:00,
2013-01-22 20:42:00,49.0,40.0,30.04,NE,36,0.0,0.0,71,0.00,,,0.00,,2013-01-23 04:42:00,
2013-01-22 20:52:00,49.0,40.0,30.04,NE,36,0.0,0.0,72,0.00,,,0.00,,2013-01-23 04:52:00,
2013-01-22 21:03:00,48.0,39.0,30.04,NE,36,0.0,0.0,72,0.00,,,0.00,,2013-01-23 05:03:00,
2013-01-22 21:12:00,48.0,39.0,30.04,NE,36,0.0,0.0,72,0.00,,,0.00,,2013-01-23 05:12:00,
2013-01-22 21:22:00,48.0,40.0,30.04,NE,36,0.0,0.0,74,0.00,,,0.00,,2013-01-23 05:22:00,
2013-01-22 21:33:00,48.0,40.0,30.05,NE,36,0.0,0.0,75,0.00,,,0.00,,2013-01-23 05:33:00,
2013-01-22 21:42:00,48.0,40.0,30.05,NE,36,0.0,0.0,75,0.00,,,0.00,,2013-01-23 05:42:00,
2013-01-22 21:52:00,47.0,40.0,30.05,NE,36,0.0,0.0,76,0.00,,,0.00,,2013-01-23 05:52:00,
2013-01-22 22:02:00,47.0,40.0,30.05,NE,36,0.0,0.0,77,0.00,,,0.00,,2013-01-23 06:02:00,
2013-01-22 22:12:00,47.0,40.0,30.05,NE,36,0.0,0.0,77,0.00,,,0.00,,2013-01-23 06:12:00,
2013-01-22 22:22:00,47.0,40.0,30.06,NE,36,0.0,0.0,77,0.00,,,0.00,,2013-01-23 06:22:00,
2013-01-22 22:32:00,46.0,39.0,30.06,NE,36,0.0,0.0,77,0.00,,,0.00,,2013-01-23 06:32:00,
2013-01-22 22:42:00,46.0,39.0,30.06,NE,36,0.0,0.0,77,0.00,,,0.00,,2013-01-23 06:42:00,
2013-01-22 22:52:00,46.0,39.0,30.06,NE,36,0.0,0.0,77,0.00,,,0.00,,2013-01-23 06:52:00,
2013-01-22 23:02:00,46.0,40.0,30.07,NE,36,0.0,0.0,78,0.00,,,0.00,,2013-01-23 07:02:00,
2013-01-22 23:11:00,46.0,40.0,30.07,NE,36,0.0,0.0,78,0.00,,,0.00,,2013-01-23 07:11:00,
2013-01-22 23:22:00,46.0,40.0,30.07,NE,36,0.0,0.0,79,0.00,,,0.00,,2013-01-23 07:22:00,
2013-01-22 23:33:00,46.0,40.0,30.07,NE,36,0.0,0.0,79,0.00,,,0.00,,2013-01-23 07:33:00,
2013-01-22 23:42:00,46.0,40.0,30.07,NE,36,0.0,0.0,79,0.00,,,0.00,,2013-01-23 07:42:00,
2013-01-22 23:52:00,46.0,40.0,30.06,NE,36,0.0,0.0,79,0.00,,,0.00,,2013-01-23 07:52:00,